Time;durP1;ratioP1;P1;durP2;ratioP2;P2;SDS_P1;SDS_P2;PMS_P1;PMS_P2;Temp;Humidity;BMP_temperature;BMP_pressure;BME280_temperature;BME280_humidity;BME280_pressure;Samples;Min_cycle;Max_cycle;Signal;HPM_P1;HPM_P2
2022/11/07 00:01:26;;;;;;;9.05;6.70;;;;;;;3.74;100.00;101585.95;1720402;82;21012;-59
2022/11/07 00:03:53;;;;;;;10.30;7.45;;;;;;;3.75;100.00;101590.18;1715772;82;21134;-59
2022/11/07 00:06:22;;;;;;;11.20;8.15;;;;;;;3.73;100.00;101583.03;1691093;83;21289;-59
2022/11/07 00:08:52;;;;;;;9.78;7.30;;;;;;;3.73;100.00;101582.56;1668928;84;20986;-60
2022/11/07 00:11:20;;;;;;;9.13;6.60;;;;;;;3.72;100.00;101582.67;1688566;84;21465;-59
2022/11/07 00:13:49;;;;;;;8.13;5.87;;;;;;;3.73;100.00;101579.16;1678860;84;20990;-59
2022/11/07 00:16:16;;;;;;;8.75;5.53;;;;;;;3.63;100.00;101573.80;1712025;83;21557;-59
2022/11/07 00:18:44;;;;;;;8.78;5.92;;;;;;;3.53;100.00;101575.38;1725973;82;21185;-64
2022/11/07 00:21:14;;;;;;;8.73;7.15;;;;;;;3.60;100.00;101576.14;1717119;82;21998;-59
2022/11/07 00:23:43;;;;;;;8.43;6.50;;;;;;;3.61;100.00;101575.20;1714038;82;21854;-61
2022/11/07 00:26:12;;;;;;;10.25;7.67;;;;;;;3.70;100.00;101575.50;1719283;82;21568;-59
2022/11/07 00:28:42;;;;;;;9.55;6.92;;;;;;;3.70;100.00;101567.77;1717865;82;20968;-59
2022/11/07 00:31:11;;;;;;;10.00;7.00;;;;;;;3.71;100.00;101574.56;1723173;82;21372;-59
2022/11/07 00:33:39;;;;;;;9.88;6.40;;;;;;;3.63;100.00;101576.37;1717991;82;21102;-59
2022/11/07 00:36:09;;;;;;;9.83;6.85;;;;;;;3.73;100.00;101569.66;1720064;82;21054;-59
2022/11/07 00:38:38;;;;;;;10.05;6.67;;;;;;;3.66;100.00;101571.84;1717633;82;21287;-60
2022/11/07 00:41:06;;;;;;;11.28;7.12;;;;;;;3.68;100.00;101574.80;1688683;84;21047;-60
2022/11/07 00:43:34;;;;;;;9.15;7.22;;;;;;;3.69;100.00;101571.28;1714948;82;21551;-60
2022/11/07 00:46:04;;;;;;;9.25;6.92;;;;;;;3.75;100.00;101566.97;1724604;82;21031;-59
2022/11/07 00:48:32;;;;;;;8.65;6.45;;;;;;;3.77;100.00;101572.86;1724877;82;21062;-62
2022/11/07 00:51:14;;;;;;;7.12;5.00;;;;;;;3.82;100.00;101566.91;1716584;82;21419;-59
2022/11/07 00:53:42;;;;;;;7.83;5.40;;;;;;;3.80;100.00;101563.16;1716309;82;21028;-60
2022/11/07 00:56:12;;;;;;;6.90;4.97;;;;;;;3.81;100.00;101562.21;1692162;83;21252;-62
2022/11/07 00:58:41;;;;;;;8.83;5.25;;;;;;;3.72;100.00;101556.42;1722944;82;21094;-59
2022/11/07 01:01:18;;;;;;;6.50;4.20;;;;;;;3.70;100.00;101567.30;1714075;82;20987;-59
2022/11/07 01:06:35;;;;;;;6.47;4.67;;;;;;;3.73;100.00;101552.91;1663661;84;21025;-59
2022/11/07 01:09:02;;;;;;;6.03;4.30;;;;;;;3.79;100.00;101561.95;1688147;84;21124;-60
2022/11/07 01:11:30;;;;;;;5.28;3.67;;;;;;;3.80;100.00;101554.12;1675467;84;21007;-60
2022/11/07 01:14:00;;;;;;;6.95;3.72;;;;;;;3.80;100.00;101548.97;1689768;83;21004;-59
2022/11/07 01:16:28;;;;;;;5.00;2.98;;;;;;;3.81;100.00;101551.08;1717690;82;21064;-59
2022/11/07 01:18:55;;;;;;;5.37;3.83;;;;;;;3.78;100.00;101545.66;1688886;84;21060;-60
2022/11/07 01:21:23;;;;;;;4.92;3.45;;;;;;;3.75;100.00;101546.34;1672353;83;21071;-59
2022/11/07 01:23:51;;;;;;;5.08;3.30;;;;;;;3.77;100.00;101545.78;1685566;84;20988;-60
2022/11/07 01:26:19;;;;;;;4.90;3.10;;;;;;;3.76;100.00;101544.14;1655322;84;21365;-59
2022/11/07 01:28:46;;;;;;;5.10;3.55;;;;;;;3.76;100.00;101543.67;1691440;83;21454;-59
2022/11/07 01:31:15;;;;;;;5.10;3.27;;;;;;;3.69;100.00;101543.73;1672763;84;20966;-60
2022/11/07 01:33:43;;;;;;;5.33;3.17;;;;;;;3.77;100.00;101536.75;1692653;84;21158;-58
2022/11/07 01:36:12;;;;;;;5.08;3.15;;;;;;;3.77;100.00;101541.44;1715389;82;21136;-57
2022/11/07 01:38:43;;;;;;;4.70;2.95;;;;;;;3.74;100.00;101541.65;1716347;82;21093;-58
2022/11/07 01:41:21;;;;;;;4.65;3.08;;;;;;;3.75;100.00;101542.03;1705309;83;21059;-58
2022/11/07 01:44:09;;;;;;;4.22;2.92;;;;;;;3.63;100.00;101539.81;1686872;83;21168;-58
2022/11/07 01:46:39;;;;;;;5.12;2.90;;;;;;;3.61;100.00;101539.11;1716968;82;21220;-58
2022/11/07 01:49:16;;;;;;;5.85;3.60;;;;;;;3.75;100.00;101534.29;1703238;82;21109;-63
2022/11/07 01:52:04;;;;;;;5.00;3.02;;;;;;;3.77;100.00;101527.25;1687920;84;21036;-58
2022/11/07 01:54:41;;;;;;;4.90;3.00;;;;;;;3.76;100.00;101533.35;1714144;82;20990;-61
2022/11/07 01:57:13;;;;;;;4.40;2.92;;;;;;;3.77;100.00;101523.86;1679953;83;21057;-58
2022/11/07 01:59:40;;;;;;;5.33;3.70;;;;;;;3.76;100.00;101521.75;1718269;82;21271;-57
2022/11/07 02:02:07;;;;;;;5.17;3.02;;;;;;;3.75;100.00;101522.69;1687626;84;20999;-58
2022/11/07 02:04:34;;;;;;;4.85;3.00;;;;;;;3.73;100.00;101527.58;1721465;82;21001;-58
2022/11/07 02:07:12;;;;;;;4.15;2.85;;;;;;;3.76;100.00;101522.22;1718380;82;21030;-60
2022/11/07 02:09:40;;;;;;;6.25;3.12;;;;;;;3.77;100.00;101523.86;1724290;82;21072;-58
2022/11/07 02:12:08;;;;;;;4.95;3.52;;;;;;;3.72;100.00;101528.05;1686896;84;21252;-57
2022/11/07 02:14:35;;;;;;;5.53;3.65;;;;;;;3.76;100.00;101525.61;1717122;82;21011;-75
2022/11/07 02:17:02;;;;;;;5.40;3.58;;;;;;;3.76;100.00;101523.03;1718628;82;22025;-58
2022/11/07 02:19:46;;;;;;;6.03;3.67;;;;;;;3.76;100.00;101528.20;1722605;82;21064;-59
2022/11/07 02:22:39;;;;;;;4.08;2.52;;;;;;;3.78;100.00;101525.49;1691236;82;21529;-75
2022/11/07 02:25:09;;;;;;;4.83;3.02;;;;;;;3.77;100.00;101526.44;1719810;82;21131;-59
2022/11/07 02:27:38;;;;;;;5.42;3.47;;;;;;;3.74;100.00;101527.94;1716865;82;20949;-60
2022/11/07 02:30:12;;;;;;;6.05;3.80;;;;;;;3.68;100.00;101527.09;1726478;82;21110;-64
2022/11/07 02:32:39;;;;;;;5.35;3.65;;;;;;;3.74;100.00;101531.80;1692427;83;20992;-60
2022/11/07 02:35:29;;;;;;;5.35;3.70;;;;;;;3.73;100.00;101528.87;1666472;84;21081;-60
2022/11/07 02:37:56;;;;;;;5.25;2.92;;;;;;;3.63;100.00;101527.39;1714448;82;22214;-60
2022/11/07 02:40:23;;;;;;;5.42;3.50;;;;;;;3.64;100.00;101525.19;1689976;83;20924;-60
2022/11/07 02:42:51;;;;;;;5.53;3.58;;;;;;;3.69;100.00;101526.16;1673516;84;21505;-59
2022/11/07 02:45:20;;;;;;;4.97;3.50;;;;;;;3.61;100.00;101531.38;1688435;84;21013;-60
2022/11/07 02:47:47;;;;;;;5.67;3.83;;;;;;;3.61;100.00;101526.22;1721592;82;20937;-60
2022/11/07 02:50:15;;;;;;;5.50;3.45;;;;;;;3.66;100.00;101530.58;1722492;82;21173;-59
2022/11/07 02:52:43;;;;;;;5.28;3.22;;;;;;;3.65;100.00;101527.65;1718988;82;21070;-58
2022/11/07 02:55:11;;;;;;;5.55;3.65;;;;;;;3.64;100.00;101527.30;1716343;82;21072;-58
2022/11/07 02:57:38;;;;;;;5.53;3.60;;;;;;;3.63;100.00;101524.34;1706882;83;21052;-61
2022/11/07 03:00:07;;;;;;;4.97;3.37;;;;;;;3.61;100.00;101526.22;1662521;84;21509;-58
2022/11/07 03:02:34;;;;;;;4.70;2.92;;;;;;;3.60;100.00;101532.31;1690162;83;21162;-60
2022/11/07 03:05:02;;;;;;;4.50;3.08;;;;;;;3.59;100.00;101518.22;1723100;82;20966;-59
2022/11/07 03:07:30;;;;;;;4.55;3.12;;;;;;;3.63;100.00;101522.23;1720407;82;20967;-60
2022/11/07 03:09:57;;;;;;;5.05;3.33;;;;;;;3.63;100.00;101518.36;1716604;82;21791;-59
2022/11/07 03:12:24;;;;;;;4.62;2.80;;;;;;;3.63;100.00;101519.66;1718262;82;21278;-58
2022/11/07 03:14:51;;;;;;;5.55;3.50;;;;;;;3.68;100.00;101521.94;1690878;84;21266;-58
2022/11/07 03:17:18;;;;;;;4.37;2.80;;;;;;;3.64;100.00;101511.01;1665056;84;21596;-61
2022/11/07 03:19:46;;;;;;;4.92;3.05;;;;;;;3.66;100.00;101507.38;1690113;84;21812;-73
2022/11/07 03:22:13;;;;;;;5.15;3.02;;;;;;;3.69;100.00;101514.55;1723149;82;21482;-59
2022/11/07 03:24:40;;;;;;;4.95;3.30;;;;;;;3.68;100.00;101511.63;1720548;82;21027;-58
2022/11/07 03:27:07;;;;;;;4.92;3.05;;;;;;;3.70;100.00;101514.90;1718205;82;21278;-58
2022/11/07 03:29:34;;;;;;;3.87;2.60;;;;;;;3.70;100.00;101516.19;1696729;83;20897;-59
2022/11/07 03:32:02;;;;;;;3.70;2.30;;;;;;;3.69;100.00;101516.66;1669269;84;21082;-59
2022/11/07 03:34:29;;;;;;;5.53;2.52;;;;;;;3.71;100.00;101517.83;1721423;82;21905;-58
2022/11/07 03:36:56;;;;;;;3.95;2.50;;;;;;;3.71;100.00;101515.25;1718985;82;21146;-58
2022/11/07 03:39:24;;;;;;;4.12;2.77;;;;;;;3.68;100.00;101514.20;1724994;82;22179;-59
2022/11/07 03:41:51;;;;;;;4.40;2.70;;;;;;;3.65;100.00;101512.65;1695278;83;21064;-58
2022/11/07 03:44:18;;;;;;;4.87;3.12;;;;;;;3.63;100.00;101507.58;1721450;82;21035;-59
2022/11/07 03:46:46;;;;;;;5.62;3.17;;;;;;;3.62;100.00;101507.23;1693966;83;21047;-59
2022/11/07 03:49:13;;;;;;;4.87;3.45;;;;;;;3.61;100.00;101509.45;1663134;84;21071;-62
2022/11/07 03:51:41;;;;;;;6.03;3.90;;;;;;;3.65;100.00;101508.78;1687780;84;21152;-59
2022/11/07 03:54:08;;;;;;;6.75;4.10;;;;;;;3.59;100.00;101514.35;1674268;84;21015;-59
2022/11/07 03:56:35;;;;;;;5.20;2.95;;;;;;;3.56;100.00;101510.25;1690904;83;20945;-58
2022/11/07 03:59:02;;;;;;;6.05;3.62;;;;;;;3.54;100.00;101508.23;1723641;82;20956;-58
2022/11/07 04:01:30;;;;;;;5.28;3.85;;;;;;;3.53;100.00;101513.04;1719422;82;21578;-58
2022/11/07 04:03:57;;;;;;;5.42;4.05;;;;;;;3.57;100.00;101509.78;1720593;82;21217;-73
2022/11/07 04:06:25;;;;;;;5.78;3.55;;;;;;;3.51;100.00;101515.36;1695335;83;22460;-60
2022/11/07 04:08:52;;;;;;;4.87;3.40;;;;;;;3.48;100.00;101515.09;1672955;83;21604;-58
2022/11/07 04:19:40;;;;;;;5.10;3.20;;;;;;;3.40;100.00;101508.36;1726750;82;20962;-60
2022/11/07 04:22:07;;;;;;;5.17;3.40;;;;;;;3.33;100.00;101504.11;1721387;82;21914;-58
2022/11/07 04:24:36;;;;;;;5.83;4.08;;;;;;;3.32;100.00;101506.31;1694962;83;21757;-59
2022/11/07 04:29:49;;;;;;;5.92;3.98;;;;;;;3.24;100.00;101509.06;1690058;83;21463;-58
2022/11/07 04:32:16;;;;;;;5.53;3.58;;;;;;;3.23;100.00;101507.42;1667600;84;21059;-58
2022/11/07 04:34:44;;;;;;;6.15;3.45;;;;;;;3.22;100.00;101500.59;1710015;83;21027;-60
2022/11/07 04:37:11;;;;;;;4.92;3.60;;;;;;;3.20;100.00;101503.29;1716470;82;20919;-75
2022/11/07 04:39:39;;;;;;;5.58;4.33;;;;;;;3.20;100.00;101499.89;1691295;83;21005;-58
2022/11/07 04:42:06;;;;;;;5.85;3.80;;;;;;;3.19;100.00;101493.92;1691902;84;21162;-58
2022/11/07 04:44:35;;;;;;;5.20;3.58;;;;;;;3.18;100.00;101498.69;1684454;84;21056;-58
2022/11/07 04:47:02;;;;;;;4.45;3.35;;;;;;;3.17;100.00;101500.45;1668984;84;20959;-59
2022/11/07 04:49:30;;;;;;;5.28;3.47;;;;;;;3.16;100.00;101500.09;1689325;84;21115;-59
2022/11/07 04:51:57;;;;;;;4.67;3.20;;;;;;;3.20;100.00;101499.42;1652895;84;22148;-59
2022/11/07 04:54:24;;;;;;;4.53;3.33;;;;;;;3.22;100.00;101499.30;1686194;84;21071;-58
2022/11/07 04:56:52;;;;;;;5.10;3.00;;;;;;;3.25;100.00;101500.39;1679568;84;21039;-58
2022/11/07 04:59:19;;;;;;;4.90;2.47;;;;;;;3.23;100.00;101499.22;1692624;83;20999;-74
2022/11/07 05:01:47;;;;;;;4.50;3.08;;;;;;;3.27;100.00;101503.70;1661144;84;21121;-58
2022/11/07 05:04:14;;;;;;;5.15;3.90;;;;;;;3.27;100.00;101506.28;1690674;83;20948;-59
2022/11/07 05:07:01;;;;;;;4.97;3.52;;;;;;;3.30;100.00;101507.36;1719267;82;21525;-58
2022/11/07 05:09:29;;;;;;;4.67;3.00;;;;;;;3.34;100.00;101501.89;1716601;82;21033;-58
2022/11/07 05:11:57;;;;;;;4.65;2.55;;;;;;;3.32;100.00;101501.16;1758921;79;21148;-58
2022/11/07 05:14:25;;;;;;;3.58;2.37;;;;;;;3.30;100.00;101506.08;1772127;79;21097;-58
2022/11/07 05:16:53;;;;;;;5.00;2.75;;;;;;;3.35;100.00;101502.23;1766202;79;21019;-68
2022/11/07 05:19:20;;;;;;;5.25;3.27;;;;;;;3.34;100.00;101499.78;1755166;80;21487;-58
2022/11/07 05:23:10;;;;;;;4.30;2.58;;;;;;;3.35;100.00;101505.28;1754960;80;21022;-58
2022/11/07 05:24:16;;;;;;;5.08;2.80;;;;;;;3.40;100.00;101504.48;1750645;80;20996;-57
2022/11/07 05:26:43;;;;;;;4.83;2.85;;;;;;;3.47;100.00;101499.74;1756231;80;21038;-59
2022/11/07 05:29:10;;;;;;;5.53;2.40;;;;;;;3.63;100.00;101506.30;1764207;80;21137;-57
2022/11/07 05:31:38;;;;;;;4.22;2.75;;;;;;;3.95;100.00;101510.95;1749045;80;21100;-58
2022/11/07 05:34:05;;;;;;;6.28;3.40;;;;;;;4.22;100.00;101509.91;1755416;80;20984;-60
2022/11/07 05:36:32;;;;;;;4.55;2.60;;;;;;;4.42;100.00;101507.16;1775954;79;21658;-65
2022/11/07 05:39:00;;;;;;;3.47;2.10;;;;;;;4.71;100.00;101502.44;1763074;80;21376;-57
2022/11/07 05:41:27;;;;;;;4.33;2.57;;;;;;;4.92;100.00;101504.69;1762032;80;21026;-57
2022/11/07 05:43:54;;;;;;;5.43;2.90;;;;;;;4.97;100.00;101497.91;1767784;80;21662;-58
2022/11/07 05:46:21;;;;;;;4.00;2.77;;;;;;;4.91;100.00;101495.77;1768196;80;21652;-70
2022/11/07 05:48:50;;;;;;;4.10;2.73;;;;;;;4.84;100.00;101497.98;1758062;80;21058;-58
2022/11/07 05:51:17;;;;;;;3.53;2.50;;;;;;;4.88;100.00;101507.97;1766827;80;21655;-59
2022/11/07 05:53:44;;;;;;;4.17;2.50;;;;;;;5.07;100.00;101498.36;1769543;79;21606;-60
2022/11/07 05:56:12;;;;;;;4.70;2.50;;;;;;;5.32;100.00;101504.25;1762619;80;21251;-59
2022/11/07 05:58:39;;;;;;;3.67;2.40;;;;;;;5.47;100.00;101506.95;1751976;80;21327;-59
2022/11/07 06:01:08;;;;;;;3.83;2.50;;;;;;;5.45;100.00;101511.87;1754511;80;21377;-62
2022/11/07 06:03:35;;;;;;;4.17;2.60;;;;;;;5.47;100.00;101516.00;1760891;80;21169;-59
2022/11/07 06:06:04;;;;;;;3.80;2.50;;;;;;;5.52;100.00;101516.45;1761566;80;21219;-60
2022/11/07 06:08:31;;;;;;;4.07;2.60;;;;;;;5.84;100.00;101513.12;1751735;80;21237;-60
2022/11/07 06:10:58;;;;;;;5.87;2.63;;;;;;;5.97;100.00;101512.52;1773500;80;21303;-59
2022/11/07 06:13:25;;;;;;;3.97;2.87;;;;;;;5.94;100.00;101512.76;1766011;80;21373;-59
2022/11/07 06:15:53;;;;;;;3.63;2.33;;;;;;;5.86;100.00;101507.34;1772108;79;21393;-59
2022/11/07 06:18:20;;;;;;;4.10;2.70;;;;;;;5.93;100.00;101511.13;1756002;80;22019;-58
2022/11/07 06:20:47;;;;;;;5.20;2.93;;;;;;;6.06;100.00;101511.80;1739070;80;22243;-61
2022/11/07 06:23:15;;;;;;;4.57;3.20;;;;;;;6.12;100.00;101502.71;1762383;80;21373;-59
2022/11/07 06:25:42;;;;;;;3.57;2.60;;;;;;;6.15;100.00;101509.42;1762268;80;21221;-59
2022/11/07 06:28:11;;;;;;;4.67;2.80;;;;;;;6.31;100.00;101505.93;1757368;80;21798;-59
2022/11/07 06:30:38;;;;;;;4.07;2.67;;;;;;;6.46;100.00;101502.09;1765959;79;21263;-61
2022/11/07 06:33:07;;;;;;;4.43;2.87;;;;;;;6.60;100.00;101500.16;1778005;80;22125;-59
2022/11/07 06:35:34;;;;;;;4.10;2.80;;;;;;;7.12;100.00;101500.95;1773161;79;21386;-59
2022/11/07 06:38:04;;;;;;;5.33;3.00;;;;;;;7.24;100.00;101489.57;1754280;80;22503;-59
2022/11/07 06:40:31;;;;;;;4.40;3.13;;;;;;;7.55;100.00;101495.05;1764113;80;22538;-68
2022/11/07 06:43:06;;;;;;;4.40;2.83;;;;;;;7.55;100.00;101495.05;1767250;80;22137;-59
2022/11/07 06:45:34;;;;;;;5.57;3.30;;;;;;;7.82;100.00;101491.48;1755323;80;21598;-60
2022/11/07 06:48:01;;;;;;;7.73;3.97;;;;;;;7.79;100.00;101488.67;1757729;80;21609;-60
2022/11/07 06:50:28;;;;;;;7.10;4.07;;;;;;;7.72;100.00;101487.08;1758075;80;22177;-68
2022/11/07 06:53:01;;;;;;;7.10;4.70;;;;;;;7.64;100.00;101476.55;1773019;80;21797;-60
2022/11/07 06:55:28;;;;;;;5.30;3.33;;;;;;;7.87;100.00;101479.73;1773141;80;22339;-59
2022/11/07 06:57:59;;;;;;;5.43;3.33;;;;;;;8.26;100.00;101474.56;1761805;80;21847;-59
2022/11/07 07:00:28;;;;;;;4.92;3.40;;;;;;;8.56;100.00;101472.30;1770419;80;21670;-73
2022/11/07 07:02:57;;;;;;;4.92;3.25;;;;;;;8.83;100.00;101470.25;1775504;79;20920;-58
2022/11/07 07:05:24;;;;;;;4.47;2.80;;;;;;;9.18;100.00;101473.45;1763792;80;21044;-59
2022/11/07 07:07:53;;;;;;;5.50;2.63;;;;;;;9.18;100.00;101476.05;1761647;80;21724;-58
2022/11/07 07:10:21;;;;;;;4.10;2.60;;;;;;;9.19;100.00;101471.18;1741866;80;21243;-73
2022/11/07 07:12:48;;;;;;;3.97;2.20;;;;;;;9.14;100.00;101473.41;1755249;80;21489;-59
2022/11/07 07:15:15;;;;;;;5.07;3.40;;;;;;;9.00;100.00;101475.17;1752970;80;21091;-59
2022/11/07 07:17:42;;;;;;;7.20;3.47;;;;;;;8.81;100.00;101464.84;1760613;80;21067;-59
2022/11/07 07:20:11;;;;;;;4.83;2.93;;;;;;;8.76;100.00;101470.47;1749598;80;20892;-58
2022/11/07 07:22:39;;;;;;;6.60;4.00;;;;;;;8.77;100.00;101470.31;1762200;80;22125;-67
2022/11/07 07:25:08;;;;;;;5.50;3.50;;;;;;;8.64;100.00;101479.40;1765439;80;21180;-58
2022/11/07 07:27:36;;;;;;;5.13;3.50;;;;;;;8.45;100.00;101466.77;1758420;80;21110;-58
2022/11/07 07:30:05;;;;;;;5.00;3.50;;;;;;;8.31;100.00;101467.65;1752447;79;20905;-58
2022/11/07 07:32:35;;;;;;;4.87;3.00;;;;;;;8.23;100.00;101464.45;1759098;80;21517;-65
2022/11/07 07:35:04;;;;;;;4.20;2.60;;;;;;;8.25;100.00;101460.73;1756561;80;20956;-58
2022/11/07 07:37:32;;;;;;;6.53;2.53;;;;;;;8.16;100.00;101458.16;1765439;80;21048;-60
2022/11/07 11:50:04;;;;;;;12.70;8.53;;;;;;;7.31;100.00;101287.91;1817195;78;22134;-61
2022/11/07 11:52:32;;;;;;;24.87;17.50;;;;;;;7.36;100.00;101297.86;1726090;83;20963;-59
2022/11/07 11:55:00;;;;;;;8.33;5.50;;;;;;;7.43;100.00;101293.77;1747674;82;22180;-62
2022/11/07 11:58:14;;;;;;;5.43;4.00;;;;;;;7.45;100.00;101300.92;1747560;81;22362;-59
2022/11/07 12:00:46;;;;;;;4.30;3.07;;;;;;;7.45;100.00;101299.62;1747391;82;23120;-59
2022/11/07 12:03:27;;;;;;;7.17;4.80;;;;;;;7.44;100.00;101297.18;1744889;82;21644;-58
2022/11/07 12:06:12;;;;;;;6.67;4.42;;;;;;;7.36;100.00;101300.94;1747776;82;21469;-72
2022/11/07 12:09:15;;;;;;;8.20;5.80;;;;;;;7.25;100.00;101292.81;1747973;81;21266;-59
2022/11/07 12:12:05;;;;;;;9.53;7.03;;;;;;;7.25;100.00;101292.81;1700705;84;23026;-60
2022/11/07 12:14:50;;;;;;;6.70;4.73;;;;;;;7.17;100.00;101291.37;1699621;84;21323;-60
2022/11/07 12:17:28;;;;;;;7.27;5.30;;;;;;;7.03;100.00;101287.39;1683398;82;21368;-58
2022/11/07 12:20:22;;;;;;;6.73;5.13;;;;;;;7.03;100.00;101287.39;1747853;82;21397;-59
2022/11/07 12:23:20;;;;;;;6.07;4.33;;;;;;;7.05;100.00;101295.39;1747661;81;21318;-60
2022/11/07 12:25:58;;;;;;;6.40;3.60;;;;;;;6.98;100.00;101285.20;1745706;82;21235;-59
2022/11/07 12:28:48;;;;;;;7.10;4.57;;;;;;;6.91;100.00;101280.69;1748237;81;21286;-58
2022/11/07 12:31:25;;;;;;;7.57;4.37;;;;;;;6.78;100.00;101270.55;1747385;82;21745;-62
2022/11/07 12:34:17;;;;;;;6.87;4.30;;;;;;;6.65;100.00;101274.70;1747022;81;21372;-61
2022/11/07 12:37:26;;;;;;;6.07;4.30;;;;;;;6.58;100.00;101267.11;1747420;82;21288;-59
2022/11/07 12:40:15;;;;;;;6.60;4.27;;;;;;;6.50;100.00;101265.66;1748137;82;21309;-59
2022/11/07 12:43:13;;;;;;;7.53;5.00;;;;;;;6.44;100.00;101268.31;1744964;82;21312;-59
2022/11/07 12:45:55;;;;;;;7.90;4.53;;;;;;;6.42;100.00;101266.31;1747938;82;21233;-60
2022/11/07 12:48:45;;;;;;;;;;;;;;;6.40;100.00;101268.20;1750285;81;22169;-58
2022/11/07 12:51:30;;;;;;;15.73;10.57;;;;;;;6.35;100.00;101272.96;1747254;82;21824;-60
2022/11/07 12:54:05;;;;;;;13.00;8.70;;;;;;;6.28;100.00;101266.18;1747358;81;21209;-59
2022/11/07 12:56:34;;;;;;;9.03;6.30;;;;;;;6.26;100.00;101260.33;1746423;82;21140;-59
2022/11/07 12:59:13;;;;;;;10.65;8.55;;;;;;;6.24;100.00;101254.92;1747055;82;21127;-60
2022/11/07 13:01:51;;;;;;;19.93;13.87;;;;;;;6.20;100.00;101252.25;1747005;82;21831;-59
2022/11/07 13:04:26;;;;;;;29.93;20.17;;;;;;;6.15;100.00;101245.36;1745276;82;21171;-61
2022/11/07 13:07:01;;;;;;;14.63;9.50;;;;;;;6.11;100.00;101245.28;1746301;82;21113;-59
2022/11/07 13:09:46;;;;;;;17.00;11.23;;;;;;;6.09;100.00;101238.92;1747275;82;21077;-59
2022/11/07 13:12:36;;;;;;;16.07;11.03;;;;;;;6.09;100.00;101234.55;1747102;82;21149;-58
2022/11/07 13:15:05;;;;;;;192.03;105.93;;;;;;;6.11;100.00;101237.52;1747290;81;21756;-58
2022/11/07 13:17:42;;;;;;;44.03;26.93;;;;;;;6.11;100.00;101227.97;1747386;82;21287;-59
2022/11/07 13:20:28;;;;;;;17.30;10.10;;;;;;;6.10;100.00;101232.81;1746841;81;21539;-62
2022/11/07 13:22:58;;;;;;;14.17;9.57;;;;;;;6.10;100.00;101235.41;1747025;81;21332;-58
2022/11/07 13:25:30;;;;;;;17.53;11.47;;;;;;;6.05;100.00;101228.00;1747287;81;21214;-58
2022/11/07 13:28:02;;;;;;;17.43;11.70;;;;;;;6.02;100.00;101233.91;1746767;81;21596;-59
2022/11/07 13:30:34;;;;;;;;;;;;;;;5.99;100.00;101231.13;1749666;81;22042;-58
2022/11/07 13:33:01;;;;;;;18.12;13.65;;;;;;;5.91;100.00;101228.78;1747625;81;20126;-59
2022/11/07 13:35:36;;;;;;;77.53;49.37;;;;;;;5.83;100.00;101230.72;1746997;82;20980;-70
2022/11/07 13:38:10;;;;;;;74.77;46.33;;;;;;;5.80;100.00;101227.94;1747099;82;21136;-58
2022/11/07 13:41:03;;;;;;;44.73;30.27;;;;;;;5.80;100.00;101224.53;1747246;82;21071;-58
2022/11/07 13:43:52;;;;;;;25.67;16.30;;;;;;;5.74;100.00;101220.67;1746926;82;21510;-59
2022/11/07 13:46:33;;;;;;;15.87;11.67;;;;;;;5.66;100.00;101218.39;1747083;82;21216;-58
2022/11/07 13:49:04;;;;;;;;;;;;;;;5.58;100.00;101213.37;1733042;82;21270;-58
2022/11/07 13:51:40;;;;;;;12.98;7.85;;;;;;;5.50;100.00;101209.79;1747470;82;20108;-59
2022/11/07 13:54:28;;;;;;;11.73;7.00;;;;;;;5.40;100.00;101207.13;1747339;82;21049;-59
2022/11/07 13:57:09;;;;;;;10.93;5.90;;;;;;;5.27;100.00;101203.92;1747200;81;22374;-58
2022/11/07 14:00:13;;;;;;;10.20;5.73;;;;;;;5.21;100.00;101195.36;1746795;81;21853;-59
2022/11/07 14:02:57;;;;;;;13.13;8.17;;;;;;;5.09;100.00;101199.29;1747213;82;21600;-58
2022/11/07 14:05:28;;;;;;;12.40;6.55;;;;;;;5.01;100.00;101199.56;1746917;81;21147;-72
2022/11/07 14:08:13;;;;;;;9.90;7.00;;;;;;;4.93;100.00;101196.78;1747202;81;21047;-59
2022/11/07 14:10:45;;;;;;;10.75;6.65;;;;;;;4.81;100.00;101195.97;1746594;82;21259;-58
2022/11/07 14:13:27;;;;;;;11.35;7.72;;;;;;;4.69;100.00;101194.38;1746735;81;21015;-59
2022/11/07 14:16:05;;;;;;;12.35;7.30;;;;;;;4.58;100.00;101196.06;1747546;81;20948;-58
2022/11/07 14:18:42;;;;;;;11.38;8.00;;;;;;;4.48;100.00;101193.84;1746618;81;21000;-62
2022/11/07 14:21:34;;;;;;;12.30;7.30;;;;;;;4.37;100.00;101189.99;1718037;82;21699;-58
2022/11/07 14:24:06;;;;;;;10.98;7.33;;;;;;;4.30;100.00;101188.35;1747037;81;20924;-71
2022/11/07 14:26:33;;;;;;;12.98;8.08;;;;;;;4.18;100.00;101189.78;1744533;82;20849;-58
2022/11/07 14:29:02;;;;;;;14.18;8.50;;;;;;;4.10;100.00;101189.91;1747219;81;21537;-58
2022/11/07 14:31:35;;;;;;;13.75;8.95;;;;;;;4.04;100.00;101190.83;1746897;81;21478;-58
2022/11/07 14:34:06;;;;;;;15.32;10.78;;;;;;;3.95;100.00;101193.66;1747254;81;20991;-58
2022/11/07 14:36:33;;;;;;;26.07;18.85;;;;;;;3.87;100.00;101189.55;1745182;82;22461;-59
2022/11/07 14:39:05;;;;;;;25.72;18.98;;;;;;;3.81;100.00;101186.95;1742127;82;21022;-58
2022/11/07 14:41:34;;;;;;;25.17;17.40;;;;;;;3.77;100.00;101191.18;1747329;82;20984;-59
2022/11/07 14:44:03;;;;;;;28.55;21.05;;;;;;;3.70;100.00;101192.58;1746829;81;21019;-59
2022/11/07 14:46:30;;;;;;;31.17;22.02;;;;;;;3.60;100.00;101184.25;1742117;81;20916;-59
2022/11/07 14:48:58;;;;;;;40.63;26.65;;;;;;;3.49;100.00;101175.69;1742065;81;21276;-59
2022/11/07 14:51:26;;;;;;;34.95;22.00;;;;;;;3.53;100.00;101174.52;1746913;82;20995;-59
2022/11/07 14:54:02;;;;;;;37.42;23.07;;;;;;;3.54;100.00;101180.83;1746951;81;20976;-59
2022/11/07 14:56:33;;;;;;;38.25;23.38;;;;;;;3.50;100.00;101175.55;1746312;81;21007;-59
2022/11/07 14:59:00;;;;;;;34.00;21.60;;;;;;;3.46;100.00;101169.46;1747126;81;21897;-58
2022/11/07 15:01:32;;;;;;;24.27;14.95;;;;;;;3.40;100.00;101183.61;1746744;81;21209;-59
2022/11/07 15:04:18;;;;;;;22.55;14.60;;;;;;;3.37;100.00;101185.13;1747550;81;20987;-58
2022/11/07 15:06:45;;;;;;;25.10;16.12;;;;;;;3.31;100.00;101179.15;1686202;84;21070;-59
2022/11/07 15:09:12;;;;;;;34.73;21.90;;;;;;;3.29;100.00;101174.56;1726920;82;20936;-58
2022/11/07 15:11:41;;;;;;;25.97;14.90;;;;;;;3.25;100.00;101173.15;1747395;82;21399;-60
2022/11/07 15:14:26;;;;;;;22.45;12.73;;;;;;;3.17;100.00;101179.68;1715893;82;21868;-58
2022/11/07 15:16:57;;;;;;;23.85;12.93;;;;;;;3.13;100.00;101187.75;1747226;82;21521;-62
2022/11/07 15:19:24;;;;;;;20.52;12.43;;;;;;;3.07;100.00;101177.45;1746993;81;20979;-58
2022/11/07 15:22:00;;;;;;;20.10;12.37;;;;;;;3.03;100.00;101181.18;1746291;81;20860;-64
2022/11/07 15:24:43;;;;;;;20.52;12.65;;;;;;;2.99;100.00;101187.45;1747047;82;20997;-59
2022/11/07 15:27:21;;;;;;;21.07;12.30;;;;;;;2.91;100.00;101185.91;1747004;82;21255;-60
2022/11/07 15:29:54;;;;;;;22.52;12.58;;;;;;;2.84;100.00;101197.57;1745729;82;21416;-58
2022/11/07 15:32:23;;;;;;;24.05;13.28;;;;;;;2.84;100.00;101198.86;1747270;81;21437;-58
2022/11/07 15:34:52;;;;;;;24.45;14.68;;;;;;;2.83;100.00;101201.09;1747205;81;21141;-59
2022/11/07 15:37:21;;;;;;;24.23;14.55;;;;;;;2.80;100.00;101197.44;1746644;82;20901;-60
2022/11/07 15:39:49;;;;;;;27.52;16.48;;;;;;;2.76;100.00;101198.59;1747206;82;21324;-59
2022/11/07 15:42:16;;;;;;;38.90;24.50;;;;;;;2.68;100.00;101202.52;1746822;81;20984;-59
2022/11/07 15:44:43;;;;;;;37.75;23.80;;;;;;;2.59;100.00;101203.19;1747305;81;20920;-60
2022/11/07 15:47:19;;;;;;;36.63;21.07;;;;;;;2.52;100.00;101210.98;1747067;82;20940;-69
2022/11/07 15:49:46;;;;;;;30.92;19.45;;;;;;;2.44;100.00;101214.09;1746609;81;21909;-59
2022/11/07 15:52:13;;;;;;;29.32;18.42;;;;;;;2.40;100.00;101213.13;1747087;81;21076;-60
2022/11/07 15:54:41;;;;;;;27.05;17.80;;;;;;;2.34;100.00;101213.08;1747101;81;21451;-59
2022/11/07 15:57:10;;;;;;;28.50;16.62;;;;;;;2.32;100.00;101217.52;1747149;82;20944;-58
2022/11/07 15:59:38;;;;;;;28.77;16.45;;;;;;;2.31;100.00;101219.74;1746608;82;20951;-59
2022/11/07 16:02:09;;;;;;;25.27;16.37;;;;;;;2.27;100.00;101217.46;1746822;81;21448;-58
2022/11/07 16:04:38;;;;;;;20.65;14.00;;;;;;;2.22;100.00;101211.36;1746036;82;21258;-59
2022/11/07 16:07:11;;;;;;;25.45;17.02;;;;;;;2.11;100.00;101216.41;1747481;82;21541;-67